sensor_id;sensor_type;location;lat;lon;timestamp;P1;durP1;ratioP1;P2;durP2;ratioP2
82265;SDS011;71866;53.340;-6.308;2023-10-08T00:01:54;17.77;;;6.30;;
82265;SDS011;71866;53.340;-6.308;2023-10-08T00:04:21;18.00;;;6.72;;
82265;SDS011;71866;53.340;-6.308;2023-10-08T00:06:49;27.35;;;6.82;;
82265;SDS011;71866;53.340;-6.308;2023-10-08T00:09:15;16.27;;;6.47;;
82265;SDS011;71866;53.340;-6.308;2023-10-08T00:11:42;16.60;;;7.43;;
82265;SDS011;71866;53.340;-6.308;2023-10-08T00:14:10;14.65;;;6.03;;
82265;SDS011;71866;53.340;-6.308;2023-10-08T00:16:36;17.83;;;6.97;;
82265;SDS011;71866;53.340;-6.308;2023-10-08T00:19:03;19.30;;;6.05;;
82265;SDS011;71866;53.340;-6.308;2023-10-08T00:21:31;19.13;;;6.55;;
82265;SDS011;71866;53.340;-6.308;2023-10-08T00:23:57;15.15;;;6.63;;
82265;SDS011;71866;53.340;-6.308;2023-10-08T00:26:29;18.90;;;6.70;;
82265;SDS011;71866;53.340;-6.308;2023-10-08T00:28:58;18.80;;;6.50;;
82265;SDS011;71866;53.340;-6.308;2023-10-08T00:31:27;17.98;;;6.47;;
82265;SDS011;71866;53.340;-6.308;2023-10-08T00:33:55;16.00;;;6.57;;
82265;SDS011;71866;53.340;-6.308;2023-10-08T00:36:22;20.58;;;7.45;;
82265;SDS011;71866;53.340;-6.308;2023-10-08T00:38:50;19.67;;;6.60;;
82265;SDS011;71866;53.340;-6.308;2023-10-08T00:41:17;17.33;;;6.93;;
82265;SDS011;71866;53.340;-6.308;2023-10-08T00:43:44;23.13;;;8.18;;
82265;SDS011;71866;53.340;-6.308;2023-10-08T00:46:11;20.00;;;6.50;;
82265;SDS011;71866;53.340;-6.308;2023-10-08T00:48:38;19.88;;;6.55;;
82265;SDS011;71866;53.340;-6.308;2023-10-08T00:51:06;17.63;;;6.93;;
82265;SDS011;71866;53.340;-6.308;2023-10-08T00:53:32;20.63;;;6.22;;
82265;SDS011;71866;53.340;-6.308;2023-10-08T00:56:00;16.58;;;6.80;;
82265;SDS011;71866;53.340;-6.308;2023-10-08T00:58:27;17.30;;;6.60;;
82265;SDS011;71866;53.340;-6.308;2023-10-08T01:00:54;19.80;;;6.80;;
82265;SDS011;71866;53.340;-6.308;2023-10-08T01:03:21;17.00;;;6.25;;
82265;SDS011;71866;53.340;-6.308;2023-10-08T01:05:48;19.83;;;5.70;;
82265;SDS011;71866;53.340;-6.308;2023-10-08T01:08:16;20.08;;;6.72;;
82265;SDS011;71866;53.340;-6.308;2023-10-08T01:10:44;19.85;;;6.68;;
82265;SDS011;71866;53.340;-6.308;2023-10-08T01:13:10;21.48;;;7.40;;
82265;SDS011;71866;53.340;-6.308;2023-10-08T01:15:38;22.42;;;8.57;;
82265;SDS011;71866;53.340;-6.308;2023-10-08T01:18:04;19.20;;;7.32;;
82265;SDS011;71866;53.340;-6.308;2023-10-08T01:20:32;16.08;;;6.25;;
82265;SDS011;71866;53.340;-6.308;2023-10-08T01:25:30;17.75;;;6.32;;
82265;SDS011;71866;53.340;-6.308;2023-10-08T01:27:56;21.02;;;6.28;;
82265;SDS011;71866;53.340;-6.308;2023-10-08T01:30:23;13.63;;;5.75;;
82265;SDS011;71866;53.340;-6.308;2023-10-08T01:32:51;18.58;;;5.85;;
82265;SDS011;71866;53.340;-6.308;2023-10-08T01:35:17;17.05;;;6.15;;
82265;SDS011;71866;53.340;-6.308;2023-10-08T01:37:45;17.48;;;6.20;;
82265;SDS011;71866;53.340;-6.308;2023-10-08T01:40:12;18.40;;;6.68;;
82265;SDS011;71866;53.340;-6.308;2023-10-08T01:42:39;15.77;;;6.82;;
82265;SDS011;71866;53.340;-6.308;2023-10-08T01:45:06;16.42;;;6.25;;
82265;SDS011;71866;53.340;-6.308;2023-10-08T01:47:33;18.42;;;6.38;;
82265;SDS011;71866;53.340;-6.308;2023-10-08T01:50:01;24.70;;;10.05;;
82265;SDS011;71866;53.340;-6.308;2023-10-08T01:52:28;17.38;;;7.07;;
82265;SDS011;71866;53.340;-6.308;2023-10-08T01:54:55;17.20;;;6.78;;
82265;SDS011;71866;53.340;-6.308;2023-10-08T01:57:22;20.00;;;6.55;;
82265;SDS011;71866;53.340;-6.308;2023-10-08T01:59:49;14.07;;;5.97;;
82265;SDS011;71866;53.340;-6.308;2023-10-08T02:02:16;13.20;;;6.13;;
82265;SDS011;71866;53.340;-6.308;2023-10-08T02:04:44;20.10;;;6.60;;
82265;SDS011;71866;53.340;-6.308;2023-10-08T02:07:10;19.58;;;6.47;;
82265;SDS011;71866;53.340;-6.308;2023-10-08T02:09:38;14.65;;;5.90;;
82265;SDS011;71866;53.340;-6.308;2023-10-08T02:12:05;19.80;;;6.70;;
82265;SDS011;71866;53.340;-6.308;2023-10-08T02:14:33;19.20;;;6.50;;
82265;SDS011;71866;53.340;-6.308;2023-10-08T02:17:00;15.70;;;6.35;;
82265;SDS011;71866;53.340;-6.308;2023-10-08T02:19:27;17.60;;;5.90;;
82265;SDS011;71866;53.340;-6.308;2023-10-08T02:21:55;18.17;;;6.60;;
82265;SDS011;71866;53.340;-6.308;2023-10-08T02:24:25;15.73;;;5.82;;
82265;SDS011;71866;53.340;-6.308;2023-10-08T02:26:53;19.42;;;6.05;;
82265;SDS011;71866;53.340;-6.308;2023-10-08T02:29:23;16.10;;;5.97;;
82265;SDS011;71866;53.340;-6.308;2023-10-08T02:31:52;16.17;;;5.95;;
82265;SDS011;71866;53.340;-6.308;2023-10-08T02:34:19;18.75;;;5.70;;
82265;SDS011;71866;53.340;-6.308;2023-10-08T02:36:46;11.77;;;5.10;;
82265;SDS011;71866;53.340;-6.308;2023-10-08T02:39:14;12.73;;;5.00;;
82265;SDS011;71866;53.340;-6.308;2023-10-08T02:41:41;13.95;;;5.28;;
82265;SDS011;71866;53.340;-6.308;2023-10-08T02:44:08;13.98;;;5.47;;
82265;SDS011;71866;53.340;-6.308;2023-10-08T02:46:36;13.90;;;5.50;;
82265;SDS011;71866;53.340;-6.308;2023-10-08T02:49:02;15.00;;;5.55;;
82265;SDS011;71866;53.340;-6.308;2023-10-08T02:51:31;14.02;;;5.13;;
82265;SDS011;71866;53.340;-6.308;2023-10-08T02:53:58;17.05;;;5.40;;
82265;SDS011;71866;53.340;-6.308;2023-10-08T02:56:24;13.88;;;5.20;;
82265;SDS011;71866;53.340;-6.308;2023-10-08T02:58:52;17.15;;;5.28;;
82265;SDS011;71866;53.340;-6.308;2023-10-08T03:01:19;13.40;;;6.18;;
82265;SDS011;71866;53.340;-6.308;2023-10-08T03:03:46;16.17;;;5.18;;
82265;SDS011;71866;53.340;-6.308;2023-10-08T03:06:13;14.40;;;5.28;;
82265;SDS011;71866;53.340;-6.308;2023-10-08T03:08:41;12.95;;;5.63;;
82265;SDS011;71866;53.340;-6.308;2023-10-08T03:11:08;17.88;;;6.68;;
82265;SDS011;71866;53.340;-6.308;2023-10-08T03:13:36;19.13;;;5.40;;
82265;SDS011;71866;53.340;-6.308;2023-10-08T03:16:03;13.65;;;5.75;;
82265;SDS011;71866;53.340;-6.308;2023-10-08T03:18:30;13.50;;;5.75;;
82265;SDS011;71866;53.340;-6.308;2023-10-08T03:20:58;15.95;;;6.53;;
82265;SDS011;71866;53.340;-6.308;2023-10-08T03:23:24;18.60;;;6.55;;
82265;SDS011;71866;53.340;-6.308;2023-10-08T03:25:57;15.85;;;5.90;;
82265;SDS011;71866;53.340;-6.308;2023-10-08T03:28:25;15.98;;;5.97;;
82265;SDS011;71866;53.340;-6.308;2023-10-08T03:30:52;16.02;;;6.50;;
82265;SDS011;71866;53.340;-6.308;2023-10-08T03:33:18;19.00;;;6.30;;
82265;SDS011;71866;53.340;-6.308;2023-10-08T03:35:46;14.93;;;5.88;;
82265;SDS011;71866;53.340;-6.308;2023-10-08T03:38:13;18.85;;;7.00;;
82265;SDS011;71866;53.340;-6.308;2023-10-08T03:40:39;17.15;;;6.13;;
82265;SDS011;71866;53.340;-6.308;2023-10-08T03:43:07;16.77;;;6.28;;
82265;SDS011;71866;53.340;-6.308;2023-10-08T03:45:34;13.85;;;6.10;;
82265;SDS011;71866;53.340;-6.308;2023-10-08T03:48:01;15.73;;;6.22;;
82265;SDS011;71866;53.340;-6.308;2023-10-08T03:50:29;17.85;;;5.82;;
82265;SDS011;71866;53.340;-6.308;2023-10-08T03:52:57;12.98;;;5.43;;
82265;SDS011;71866;53.340;-6.308;2023-10-08T03:55:23;14.85;;;5.93;;
82265;SDS011;71866;53.340;-6.308;2023-10-08T03:57:51;17.85;;;6.32;;
82265;SDS011;71866;53.340;-6.308;2023-10-08T04:00:17;13.23;;;5.68;;
82265;SDS011;71866;53.340;-6.308;2023-10-08T04:02:45;13.95;;;6.07;;
82265;SDS011;71866;53.340;-6.308;2023-10-08T04:05:13;16.67;;;5.75;;
82265;SDS011;71866;53.340;-6.308;2023-10-08T04:07:40;15.38;;;6.05;;
82265;SDS011;71866;53.340;-6.308;2023-10-08T04:10:06;10.82;;;5.40;;
82265;SDS011;71866;53.340;-6.308;2023-10-08T04:12:34;18.42;;;5.47;;
82265;SDS011;71866;53.340;-6.308;2023-10-08T04:15:03;13.25;;;4.95;;
82265;SDS011;71866;53.340;-6.308;2023-10-08T04:17:31;13.10;;;5.47;;
82265;SDS011;71866;53.340;-6.308;2023-10-08T04:19:58;15.13;;;5.88;;
82265;SDS011;71866;53.340;-6.308;2023-10-08T04:22:24;11.93;;;5.70;;
82265;SDS011;71866;53.340;-6.308;2023-10-08T04:24:52;16.52;;;6.68;;
82265;SDS011;71866;53.340;-6.308;2023-10-08T04:27:19;13.80;;;5.97;;
82265;SDS011;71866;53.340;-6.308;2023-10-08T04:29:47;15.32;;;6.43;;
82265;SDS011;71866;53.340;-6.308;2023-10-08T04:32:14;13.18;;;6.25;;
82265;SDS011;71866;53.340;-6.308;2023-10-08T04:34:40;13.77;;;5.60;;
82265;SDS011;71866;53.340;-6.308;2023-10-08T04:37:08;14.10;;;5.65;;
82265;SDS011;71866;53.340;-6.308;2023-10-08T04:39:35;16.15;;;5.82;;
82265;SDS011;71866;53.340;-6.308;2023-10-08T04:42:02;15.60;;;4.95;;
82265;SDS011;71866;53.340;-6.308;2023-10-08T04:44:29;13.02;;;4.68;;
82265;SDS011;71866;53.340;-6.308;2023-10-08T04:46:57;11.68;;;4.72;;
82265;SDS011;71866;53.340;-6.308;2023-10-08T04:49:24;11.13;;;4.65;;
82265;SDS011;71866;53.340;-6.308;2023-10-08T04:51:52;11.52;;;5.50;;
82265;SDS011;71866;53.340;-6.308;2023-10-08T04:54:21;16.33;;;4.72;;
82265;SDS011;71866;53.340;-6.308;2023-10-08T04:56:48;11.73;;;5.07;;
82265;SDS011;71866;53.340;-6.308;2023-10-08T04:59:15;9.88;;;5.00;;
82265;SDS011;71866;53.340;-6.308;2023-10-08T05:01:42;9.80;;;4.63;;
82265;SDS011;71866;53.340;-6.308;2023-10-08T05:04:10;9.75;;;4.88;;
82265;SDS011;71866;53.340;-6.308;2023-10-08T05:06:37;8.93;;;4.43;;
82265;SDS011;71866;53.340;-6.308;2023-10-08T05:09:05;11.18;;;5.00;;
82265;SDS011;71866;53.340;-6.308;2023-10-08T05:11:35;12.50;;;4.82;;
82265;SDS011;71866;53.340;-6.308;2023-10-08T05:14:01;10.75;;;5.00;;
82265;SDS011;71866;53.340;-6.308;2023-10-08T05:16:28;13.80;;;4.97;;
82265;SDS011;71866;53.340;-6.308;2023-10-08T05:18:56;13.43;;;5.70;;
82265;SDS011;71866;53.340;-6.308;2023-10-08T05:21:23;12.73;;;5.60;;
82265;SDS011;71866;53.340;-6.308;2023-10-08T05:23:51;12.70;;;5.20;;
82265;SDS011;71866;53.340;-6.308;2023-10-08T05:26:18;11.90;;;5.38;;
82265;SDS011;71866;53.340;-6.308;2023-10-08T05:28:46;15.23;;;5.03;;
82265;SDS011;71866;53.340;-6.308;2023-10-08T05:31:16;14.23;;;5.03;;
82265;SDS011;71866;53.340;-6.308;2023-10-08T05:33:43;14.77;;;5.30;;
82265;SDS011;71866;53.340;-6.308;2023-10-08T05:36:10;14.23;;;5.15;;
82265;SDS011;71866;53.340;-6.308;2023-10-08T05:38:38;12.70;;;4.90;;
82265;SDS011;71866;53.340;-6.308;2023-10-08T05:41:05;16.83;;;5.45;;
82265;SDS011;71866;53.340;-6.308;2023-10-08T05:43:32;15.75;;;5.45;;
82265;SDS011;71866;53.340;-6.308;2023-10-08T05:46:09;14.00;;;5.10;;
82265;SDS011;71866;53.340;-6.308;2023-10-08T05:48:37;15.77;;;5.18;;
82265;SDS011;71866;53.340;-6.308;2023-10-08T05:51:08;18.20;;;4.95;;
82265;SDS011;71866;53.340;-6.308;2023-10-08T05:53:34;10.25;;;5.03;;
82265;SDS011;71866;53.340;-6.308;2023-10-08T05:56:04;11.27;;;4.65;;
82265;SDS011;71866;53.340;-6.308;2023-10-08T05:58:31;14.20;;;5.55;;
82265;SDS011;71866;53.340;-6.308;2023-10-08T06:00:58;15.80;;;6.43;;
82265;SDS011;71866;53.340;-6.308;2023-10-08T06:03:25;13.20;;;5.18;;
82265;SDS011;71866;53.340;-6.308;2023-10-08T06:05:52;11.00;;;5.35;;
82265;SDS011;71866;53.340;-6.308;2023-10-08T06:08:20;14.93;;;5.68;;
82265;SDS011;71866;53.340;-6.308;2023-10-08T06:10:47;12.20;;;5.45;;
82265;SDS011;71866;53.340;-6.308;2023-10-08T06:13:14;16.55;;;5.28;;
82265;SDS011;71866;53.340;-6.308;2023-10-08T06:15:45;15.27;;;5.28;;
82265;SDS011;71866;53.340;-6.308;2023-10-08T06:18:20;15.52;;;5.68;;
82265;SDS011;71866;53.340;-6.308;2023-10-08T06:20:57;10.60;;;4.80;;
82265;SDS011;71866;53.340;-6.308;2023-10-08T06:23:26;14.85;;;5.65;;
82265;SDS011;71866;53.340;-6.308;2023-10-08T06:25:54;13.77;;;5.38;;
82265;SDS011;71866;53.340;-6.308;2023-10-08T06:28:22;12.68;;;4.85;;
82265;SDS011;71866;53.340;-6.308;2023-10-08T06:30:50;12.30;;;4.93;;
82265;SDS011;71866;53.340;-6.308;2023-10-08T06:33:19;14.95;;;5.78;;
82265;SDS011;71866;53.340;-6.308;2023-10-08T06:35:48;11.93;;;5.10;;
82265;SDS011;71866;53.340;-6.308;2023-10-08T06:38:15;15.13;;;5.53;;
82265;SDS011;71866;53.340;-6.308;2023-10-08T06:40:42;13.00;;;4.78;;
82265;SDS011;71866;53.340;-6.308;2023-10-08T06:43:10;14.15;;;4.68;;
82265;SDS011;71866;53.340;-6.308;2023-10-08T06:45:37;12.45;;;5.72;;
82265;SDS011;71866;53.340;-6.308;2023-10-08T06:48:07;10.35;;;4.97;;
82265;SDS011;71866;53.340;-6.308;2023-10-08T06:50:35;12.10;;;5.18;;
82265;SDS011;71866;53.340;-6.308;2023-10-08T06:53:02;13.13;;;5.10;;
82265;SDS011;71866;53.340;-6.308;2023-10-08T06:55:31;12.85;;;5.00;;
82265;SDS011;71866;53.340;-6.308;2023-10-08T06:57:58;13.88;;;5.38;;
82265;SDS011;71866;53.340;-6.308;2023-10-08T07:00:27;13.05;;;4.93;;
82265;SDS011;71866;53.340;-6.308;2023-10-08T07:02:53;10.32;;;4.93;;
82265;SDS011;71866;53.340;-6.308;2023-10-08T07:05:21;11.40;;;5.38;;
82265;SDS011;71866;53.340;-6.308;2023-10-08T07:07:48;9.95;;;4.75;;
82265;SDS011;71866;53.340;-6.308;2023-10-08T07:10:15;11.27;;;5.25;;
82265;SDS011;71866;53.340;-6.308;2023-10-08T07:12:42;12.80;;;5.50;;
82265;SDS011;71866;53.340;-6.308;2023-10-08T07:15:09;11.55;;;4.95;;
82265;SDS011;71866;53.340;-6.308;2023-10-08T07:17:37;9.50;;;4.35;;
82265;SDS011;71866;53.340;-6.308;2023-10-08T07:20:04;10.48;;;4.43;;
82265;SDS011;71866;53.340;-6.308;2023-10-08T07:22:32;11.50;;;4.72;;
82265;SDS011;71866;53.340;-6.308;2023-10-08T07:24:58;11.45;;;4.88;;
82265;SDS011;71866;53.340;-6.308;2023-10-08T07:27:26;10.10;;;4.90;;
82265;SDS011;71866;53.340;-6.308;2023-10-08T07:29:52;8.85;;;4.40;;
82265;SDS011;71866;53.340;-6.308;2023-10-08T07:32:20;10.52;;;4.93;;
82265;SDS011;71866;53.340;-6.308;2023-10-08T07:34:47;12.18;;;4.72;;
82265;SDS011;71866;53.340;-6.308;2023-10-08T07:37:13;12.43;;;4.07;;
82265;SDS011;71866;53.340;-6.308;2023-10-08T07:39:41;11.50;;;5.03;;
82265;SDS011;71866;53.340;-6.308;2023-10-08T07:42:08;14.95;;;4.60;;
82265;SDS011;71866;53.340;-6.308;2023-10-08T07:44:35;11.70;;;4.35;;
82265;SDS011;71866;53.340;-6.308;2023-10-08T07:47:02;7.60;;;3.95;;
82265;SDS011;71866;53.340;-6.308;2023-10-08T07:49:29;8.73;;;3.97;;
82265;SDS011;71866;53.340;-6.308;2023-10-08T07:51:58;11.18;;;4.80;;
82265;SDS011;71866;53.340;-6.308;2023-10-08T07:54:25;11.10;;;4.15;;
82265;SDS011;71866;53.340;-6.308;2023-10-08T07:56:54;11.77;;;5.38;;
82265;SDS011;71866;53.340;-6.308;2023-10-08T07:59:21;12.43;;;4.78;;
82265;SDS011;71866;53.340;-6.308;2023-10-08T08:01:48;10.98;;;4.60;;
82265;SDS011;71866;53.340;-6.308;2023-10-08T08:04:16;13.50;;;5.47;;
82265;SDS011;71866;53.340;-6.308;2023-10-08T08:06:42;11.90;;;5.38;;
82265;SDS011;71866;53.340;-6.308;2023-10-08T08:09:10;10.75;;;5.00;;
82265;SDS011;71866;53.340;-6.308;2023-10-08T08:11:37;12.18;;;4.72;;
82265;SDS011;71866;53.340;-6.308;2023-10-08T08:14:03;11.45;;;4.72;;
82265;SDS011;71866;53.340;-6.308;2023-10-08T08:16:31;13.00;;;5.05;;
82265;SDS011;71866;53.340;-6.308;2023-10-08T08:18:58;10.60;;;4.22;;
82265;SDS011;71866;53.340;-6.308;2023-10-08T08:21:25;11.80;;;3.95;;
82265;SDS011;71866;53.340;-6.308;2023-10-08T08:23:52;9.85;;;4.45;;
82265;SDS011;71866;53.340;-6.308;2023-10-08T08:26:20;9.10;;;3.75;;
82265;SDS011;71866;53.340;-6.308;2023-10-08T08:28:49;8.15;;;3.40;;
82265;SDS011;71866;53.340;-6.308;2023-10-08T08:31:16;7.70;;;3.33;;
82265;SDS011;71866;53.340;-6.308;2023-10-08T08:33:43;8.52;;;3.33;;
82265;SDS011;71866;53.340;-6.308;2023-10-08T08:36:10;7.13;;;3.00;;
82265;SDS011;71866;53.340;-6.308;2023-10-08T08:38:37;6.43;;;2.90;;
82265;SDS011;71866;53.340;-6.308;2023-10-08T08:41:04;6.05;;;2.40;;
82265;SDS011;71866;53.340;-6.308;2023-10-08T08:43:35;5.47;;;2.60;;
82265;SDS011;71866;53.340;-6.308;2023-10-08T08:46:03;6.28;;;2.50;;
82265;SDS011;71866;53.340;-6.308;2023-10-08T08:48:30;7.07;;;2.90;;
82265;SDS011;71866;53.340;-6.308;2023-10-08T08:51:01;5.15;;;2.00;;
82265;SDS011;71866;53.340;-6.308;2023-10-08T08:53:28;5.78;;;2.17;;
82265;SDS011;71866;53.340;-6.308;2023-10-08T08:55:54;6.32;;;2.28;;
82265;SDS011;71866;53.340;-6.308;2023-10-08T08:58:22;3.95;;;1.92;;
82265;SDS011;71866;53.340;-6.308;2023-10-08T09:00:49;3.50;;;2.00;;
82265;SDS011;71866;53.340;-6.308;2023-10-08T09:03:18;2.97;;;1.77;;
82265;SDS011;71866;53.340;-6.308;2023-10-08T09:05:46;5.60;;;1.80;;
82265;SDS011;71866;53.340;-6.308;2023-10-08T09:08:13;4.22;;;1.80;;
82265;SDS011;71866;53.340;-6.308;2023-10-08T09:10:40;5.05;;;1.85;;
82265;SDS011;71866;53.340;-6.308;2023-10-08T09:13:10;3.33;;;1.70;;
82265;SDS011;71866;53.340;-6.308;2023-10-08T09:15:37;4.47;;;1.80;;
82265;SDS011;71866;53.340;-6.308;2023-10-08T09:18:04;5.22;;;1.70;;
82265;SDS011;71866;53.340;-6.308;2023-10-08T09:20:36;3.55;;;1.75;;
82265;SDS011;71866;53.340;-6.308;2023-10-08T09:25:34;2.35;;;1.40;;
82265;SDS011;71866;53.340;-6.308;2023-10-08T09:28:01;3.22;;;1.23;;
82265;SDS011;71866;53.340;-6.308;2023-10-08T09:30:29;6.25;;;1.70;;
82265;SDS011;71866;53.340;-6.308;2023-10-08T09:32:57;4.95;;;1.35;;
82265;SDS011;71866;53.340;-6.308;2023-10-08T09:35:24;4.45;;;1.50;;
82265;SDS011;71866;53.340;-6.308;2023-10-08T09:37:51;4.18;;;1.58;;
82265;SDS011;71866;53.340;-6.308;2023-10-08T09:40:21;4.82;;;1.70;;
82265;SDS011;71866;53.340;-6.308;2023-10-08T09:42:48;4.60;;;1.55;;
82265;SDS011;71866;53.340;-6.308;2023-10-08T09:45:17;5.25;;;2.00;;
82265;SDS011;71866;53.340;-6.308;2023-10-08T09:47:48;4.55;;;1.67;;
82265;SDS011;71866;53.340;-6.308;2023-10-08T09:50:29;5.03;;;1.98;;
82265;SDS011;71866;53.340;-6.308;2023-10-08T09:55:37;3.38;;;1.60;;
82265;SDS011;71866;53.340;-6.308;2023-10-08T09:58:08;5.80;;;2.08;;
82265;SDS011;71866;53.340;-6.308;2023-10-08T10:00:38;6.65;;;2.33;;
82265;SDS011;71866;53.340;-6.308;2023-10-08T10:03:05;6.47;;;2.08;;
82265;SDS011;71866;53.340;-6.308;2023-10-08T10:05:32;6.38;;;2.30;;
82265;SDS011;71866;53.340;-6.308;2023-10-08T10:08:00;5.93;;;2.33;;
82265;SDS011;71866;53.340;-6.308;2023-10-08T10:10:29;3.53;;;2.28;;
82265;SDS011;71866;53.340;-6.308;2023-10-08T10:12:58;5.22;;;2.67;;
82265;SDS011;71866;53.340;-6.308;2023-10-08T10:15:25;5.43;;;2.00;;
82265;SDS011;71866;53.340;-6.308;2023-10-08T10:18:07;3.97;;;2.03;;
82265;SDS011;71866;53.340;-6.308;2023-10-08T10:20:59;5.75;;;2.45;;
82265;SDS011;71866;53.340;-6.308;2023-10-08T10:29:17;5.15;;;2.13;;
82265;SDS011;71866;53.340;-6.308;2023-10-08T10:31:43;6.72;;;2.10;;
82265;SDS011;71866;53.340;-6.308;2023-10-08T10:34:12;4.85;;;2.00;;
82265;SDS011;71866;53.340;-6.308;2023-10-08T10:36:47;8.07;;;2.42;;
82265;SDS011;71866;53.340;-6.308;2023-10-08T10:39:16;5.10;;;2.15;;
82265;SDS011;71866;53.340;-6.308;2023-10-08T10:41:45;4.47;;;2.10;;
82265;SDS011;71866;53.340;-6.308;2023-10-08T10:46:45;5.78;;;2.22;;
82265;SDS011;71866;53.340;-6.308;2023-10-08T10:49:12;5.40;;;2.42;;
82265;SDS011;71866;53.340;-6.308;2023-10-08T10:51:40;5.18;;;2.97;;
82265;SDS011;71866;53.340;-6.308;2023-10-08T10:54:08;5.88;;;1.77;;
82265;SDS011;71866;53.340;-6.308;2023-10-08T10:56:35;7.18;;;3.17;;
82265;SDS011;71866;53.340;-6.308;2023-10-08T10:59:02;6.57;;;2.58;;
82265;SDS011;71866;53.340;-6.308;2023-10-08T11:01:29;6.40;;;2.55;;
82265;SDS011;71866;53.340;-6.308;2023-10-08T11:03:57;8.57;;;3.72;;
82265;SDS011;71866;53.340;-6.308;2023-10-08T11:06:24;6.80;;;3.30;;
82265;SDS011;71866;53.340;-6.308;2023-10-08T11:08:51;8.38;;;3.75;;
82265;SDS011;71866;53.340;-6.308;2023-10-08T11:11:26;9.93;;;3.70;;
82265;SDS011;71866;53.340;-6.308;2023-10-08T11:13:58;11.13;;;3.55;;
82265;SDS011;71866;53.340;-6.308;2023-10-08T11:16:27;9.40;;;3.42;;
82265;SDS011;71866;53.340;-6.308;2023-10-08T11:18:55;11.55;;;4.20;;
82265;SDS011;71866;53.340;-6.308;2023-10-08T11:21:22;9.88;;;3.72;;
82265;SDS011;71866;53.340;-6.308;2023-10-08T11:23:49;10.80;;;3.65;;
82265;SDS011;71866;53.340;-6.308;2023-10-08T11:26:18;10.35;;;4.05;;
82265;SDS011;71866;53.340;-6.308;2023-10-08T11:28:46;12.00;;;4.45;;
82265;SDS011;71866;53.340;-6.308;2023-10-08T11:31:15;6.47;;;3.40;;
82265;SDS011;71866;53.340;-6.308;2023-10-08T11:33:43;8.18;;;3.50;;
82265;SDS011;71866;53.340;-6.308;2023-10-08T11:36:16;7.85;;;3.47;;
82265;SDS011;71866;53.340;-6.308;2023-10-08T11:38:44;8.35;;;3.35;;
82265;SDS011;71866;53.340;-6.308;2023-10-08T11:41:11;7.43;;;3.60;;
82265;SDS011;71866;53.340;-6.308;2023-10-08T11:43:41;7.90;;;3.20;;
82265;SDS011;71866;53.340;-6.308;2023-10-08T11:46:07;7.43;;;4.30;;
82265;SDS011;71866;53.340;-6.308;2023-10-08T11:48:35;7.95;;;3.05;;
82265;SDS011;71866;53.340;-6.308;2023-10-08T11:51:02;7.05;;;3.47;;
82265;SDS011;71866;53.340;-6.308;2023-10-08T11:53:30;10.95;;;3.72;;
82265;SDS011;71866;53.340;-6.308;2023-10-08T11:55:56;7.68;;;2.50;;
82265;SDS011;71866;53.340;-6.308;2023-10-08T11:58:23;6.55;;;3.03;;
82265;SDS011;71866;53.340;-6.308;2023-10-08T12:00:51;6.70;;;2.65;;
82265;SDS011;71866;53.340;-6.308;2023-10-08T12:03:17;6.50;;;3.08;;
82265;SDS011;71866;53.340;-6.308;2023-10-08T12:05:46;6.50;;;2.97;;
82265;SDS011;71866;53.340;-6.308;2023-10-08T12:08:17;4.47;;;2.55;;
82265;SDS011;71866;53.340;-6.308;2023-10-08T12:10:46;6.43;;;2.50;;
82265;SDS011;71866;53.340;-6.308;2023-10-08T12:13:13;6.68;;;2.63;;
82265;SDS011;71866;53.340;-6.308;2023-10-08T12:15:42;4.88;;;2.58;;
82265;SDS011;71866;53.340;-6.308;2023-10-08T12:18:10;4.55;;;2.72;;
82265;SDS011;71866;53.340;-6.308;2023-10-08T12:20:38;6.40;;;2.20;;
82265;SDS011;71866;53.340;-6.308;2023-10-08T12:23:05;4.82;;;2.35;;
82265;SDS011;71866;53.340;-6.308;2023-10-08T12:25:33;5.35;;;2.58;;
82265;SDS011;71866;53.340;-6.308;2023-10-08T12:28:00;4.13;;;1.92;;
82265;SDS011;71866;53.340;-6.308;2023-10-08T12:30:28;4.15;;;2.25;;
82265;SDS011;71866;53.340;-6.308;2023-10-08T12:32:56;5.22;;;2.15;;
82265;SDS011;71866;53.340;-6.308;2023-10-08T12:35:23;5.55;;;2.53;;
82265;SDS011;71866;53.340;-6.308;2023-10-08T12:37:50;6.07;;;2.40;;
82265;SDS011;71866;53.340;-6.308;2023-10-08T12:40:18;5.65;;;2.45;;
82265;SDS011;71866;53.340;-6.308;2023-10-08T12:42:44;7.53;;;3.10;;
82265;SDS011;71866;53.340;-6.308;2023-10-08T12:45:11;6.90;;;2.65;;
82265;SDS011;71866;53.340;-6.308;2023-10-08T12:47:39;6.15;;;3.25;;
82265;SDS011;71866;53.340;-6.308;2023-10-08T12:50:07;5.30;;;2.80;;
82265;SDS011;71866;53.340;-6.308;2023-10-08T12:52:33;6.78;;;2.70;;
82265;SDS011;71866;53.340;-6.308;2023-10-08T12:55:01;5.75;;;3.00;;
82265;SDS011;71866;53.340;-6.308;2023-10-08T12:57:28;5.60;;;3.30;;
82265;SDS011;71866;53.340;-6.308;2023-10-08T12:59:54;5.38;;;2.90;;
82265;SDS011;71866;53.340;-6.308;2023-10-08T13:02:22;7.20;;;3.03;;
82265;SDS011;71866;53.340;-6.308;2023-10-08T13:04:49;5.82;;;2.50;;
82265;SDS011;71866;53.340;-6.308;2023-10-08T13:07:16;6.15;;;3.13;;
82265;SDS011;71866;53.340;-6.308;2023-10-08T13:09:43;5.65;;;3.05;;
82265;SDS011;71866;53.340;-6.308;2023-10-08T13:12:09;9.20;;;3.33;;
82265;SDS011;71866;53.340;-6.308;2023-10-08T13:14:37;5.10;;;2.92;;
82265;SDS011;71866;53.340;-6.308;2023-10-08T13:17:05;7.20;;;2.70;;
82265;SDS011;71866;53.340;-6.308;2023-10-08T13:19:31;5.63;;;2.90;;
82265;SDS011;71866;53.340;-6.308;2023-10-08T13:21:58;6.05;;;2.80;;
82265;SDS011;71866;53.340;-6.308;2023-10-08T13:24:26;6.28;;;3.33;;
82265;SDS011;71866;53.340;-6.308;2023-10-08T13:26:52;4.88;;;2.88;;
82265;SDS011;71866;53.340;-6.308;2023-10-08T13:29:19;7.35;;;3.65;;
82265;SDS011;71866;53.340;-6.308;2023-10-08T13:31:47;7.68;;;3.38;;
82265;SDS011;71866;53.340;-6.308;2023-10-08T13:34:14;6.32;;;3.67;;
82265;SDS011;71866;53.340;-6.308;2023-10-08T13:36:40;7.53;;;3.25;;
82265;SDS011;71866;53.340;-6.308;2023-10-08T13:39:08;7.05;;;3.60;;
82265;SDS011;71866;53.340;-6.308;2023-10-08T13:41:38;4.78;;;3.28;;
82265;SDS011;71866;53.340;-6.308;2023-10-08T13:44:05;8.05;;;3.63;;
82265;SDS011;71866;53.340;-6.308;2023-10-08T13:46:33;7.65;;;3.53;;
82265;SDS011;71866;53.340;-6.308;2023-10-08T13:49:01;4.97;;;2.40;;
82265;SDS011;71866;53.340;-6.308;2023-10-08T13:51:29;5.10;;;3.10;;
82265;SDS011;71866;53.340;-6.308;2023-10-08T13:53:57;7.22;;;3.40;;
82265;SDS011;71866;53.340;-6.308;2023-10-08T13:56:24;4.18;;;2.70;;
82265;SDS011;71866;53.340;-6.308;2023-10-08T13:58:52;5.80;;;2.90;;
82265;SDS011;71866;53.340;-6.308;2023-10-08T14:01:20;8.20;;;3.67;;
82265;SDS011;71866;53.340;-6.308;2023-10-08T14:03:47;7.32;;;3.75;;
82265;SDS011;71866;53.340;-6.308;2023-10-08T14:06:16;5.55;;;3.05;;
82265;SDS011;71866;53.340;-6.308;2023-10-08T14:08:43;4.78;;;3.17;;
82265;SDS011;71866;53.340;-6.308;2023-10-08T14:11:11;8.07;;;3.20;;
82265;SDS011;71866;53.340;-6.308;2023-10-08T14:13:37;5.28;;;2.60;;
82265;SDS011;71866;53.340;-6.308;2023-10-08T14:16:05;5.38;;;2.78;;
82265;SDS011;71866;53.340;-6.308;2023-10-08T14:18:32;5.05;;;2.70;;
82265;SDS011;71866;53.340;-6.308;2023-10-08T14:20:59;5.90;;;3.13;;
82265;SDS011;71866;53.340;-6.308;2023-10-08T14:23:26;8.13;;;3.55;;
82265;SDS011;71866;53.340;-6.308;2023-10-08T14:25:53;5.97;;;2.90;;
82265;SDS011;71866;53.340;-6.308;2023-10-08T14:28:21;6.68;;;3.10;;
82265;SDS011;71866;53.340;-6.308;2023-10-08T14:30:48;5.32;;;3.08;;
82265;SDS011;71866;53.340;-6.308;2023-10-08T14:33:15;7.00;;;3.17;;
82265;SDS011;71866;53.340;-6.308;2023-10-08T14:35:43;6.30;;;3.38;;
82265;SDS011;71866;53.340;-6.308;2023-10-08T14:38:11;6.15;;;3.17;;
82265;SDS011;71866;53.340;-6.308;2023-10-08T14:40:37;6.13;;;3.40;;
82265;SDS011;71866;53.340;-6.308;2023-10-08T14:43:04;6.03;;;3.38;;
82265;SDS011;71866;53.340;-6.308;2023-10-08T14:45:32;5.90;;;3.58;;